createdAt,value
2019-03-21T00:01:44.754Z,8.96
2019-03-21T00:04:15.193Z,8.99
2019-03-21T00:06:45.078Z,9.00
2019-03-21T00:09:17.357Z,8.96
2019-03-21T00:12:06.947Z,8.94
2019-03-21T00:14:43.092Z,8.96
2019-03-21T00:17:32.820Z,8.91
2019-03-21T00:20:02.587Z,8.95
2019-03-21T00:22:32.483Z,8.96
2019-03-21T00:25:02.254Z,8.93
2019-03-21T00:27:32.035Z,8.95
2019-03-21T00:30:01.809Z,8.91
2019-03-21T00:32:31.649Z,8.93
2019-03-21T00:35:01.446Z,8.95
2019-03-21T00:37:31.187Z,8.99
2019-03-21T00:40:01.478Z,8.98
2019-03-21T00:42:31.261Z,8.98
2019-03-21T00:45:01.262Z,9.00
2019-03-21T00:47:31.019Z,9.00
2019-03-21T00:50:00.791Z,8.99
2019-03-21T00:52:30.585Z,8.96
2019-03-21T00:55:00.351Z,8.96
2019-03-21T00:57:30.143Z,9.01
2019-03-21T00:59:59.973Z,9.00
2019-03-21T01:02:29.735Z,9.01
2019-03-21T01:04:59.523Z,9.03
2019-03-21T01:07:29.266Z,9.01
2019-03-21T01:09:59.502Z,9.04
2019-03-21T01:12:29.261Z,9.05
2019-03-21T01:14:59.037Z,9.04
2019-03-21T01:17:28.817Z,9.04
2019-03-21T01:19:58.610Z,9.02
2019-03-21T01:22:28.401Z,9.02
2019-03-21T01:24:58.177Z,9.03
2019-03-21T01:27:27.972Z,8.99
2019-03-21T01:29:57.724Z,8.97
2019-03-21T01:32:27.540Z,8.96
2019-03-21T01:34:57.277Z,8.97
2019-03-21T01:37:27.047Z,8.96
2019-03-21T01:39:56.810Z,8.96
2019-03-21T01:42:26.602Z,8.95
2019-03-21T01:44:56.445Z,8.90
2019-03-21T01:47:26.229Z,8.91
2019-03-21T01:49:55.998Z,8.88
2019-03-21T01:52:25.752Z,8.91
2019-03-21T01:54:55.561Z,8.95
2019-03-21T01:57:25.295Z,8.94
2019-03-21T01:59:55.073Z,8.98
2019-03-21T02:02:24.856Z,8.98
2019-03-21T02:04:54.664Z,9.01
2019-03-21T02:07:24.428Z,9.00
2019-03-21T02:09:54.199Z,9.00
2019-03-21T02:12:23.964Z,9.03
2019-03-21T02:14:53.703Z,9.03
2019-03-21T02:17:23.498Z,9.00
2019-03-21T02:19:53.235Z,9.03
2019-03-21T02:22:23.043Z,9.06
2019-03-21T02:24:52.843Z,9.05
2019-03-21T02:27:22.678Z,9.04
2019-03-21T02:29:52.429Z,9.01
2019-03-21T02:32:22.216Z,9.00
2019-03-21T02:34:51.989Z,9.02
2019-03-21T02:37:21.733Z,9.04
2019-03-21T02:39:59.334Z,9.04
2019-03-21T02:42:22.980Z,9.04
2019-03-21T02:45:07.225Z,9.02
2019-03-21T02:47:24.238Z,9.06
2019-03-21T02:49:54.112Z,9.02
2019-03-21T02:52:23.873Z,9.03
2019-03-21T02:54:53.676Z,9.06
2019-03-21T02:57:23.417Z,9.04
2019-03-21T02:59:53.180Z,9.04
2019-03-21T03:02:22.964Z,9.04
2019-03-21T03:04:52.837Z,9.06
2019-03-21T03:07:22.621Z,9.07
2019-03-21T03:09:52.399Z,9.00
2019-03-21T03:12:22.164Z,9.01
2019-03-21T03:14:51.905Z,8.98
2019-03-21T03:17:21.725Z,8.98
2019-03-21T03:19:51.468Z,8.98
2019-03-21T03:22:21.278Z,8.93
2019-03-21T03:24:51.357Z,8.96
2019-03-21T03:27:21.149Z,8.94
2019-03-21T03:29:50.929Z,8.93
2019-03-21T03:32:20.808Z,8.93
2019-03-21T03:34:50.837Z,8.95
2019-03-21T03:37:20.568Z,8.96
2019-03-21T03:39:50.378Z,8.96
2019-03-21T03:42:20.155Z,8.98
2019-03-21T03:44:49.962Z,8.98
2019-03-21T03:47:19.728Z,8.97
2019-03-21T03:49:49.503Z,8.92
2019-03-21T03:52:19.283Z,8.93
2019-03-21T03:54:49.038Z,8.94
2019-03-21T03:57:19.486Z,8.94
2019-03-21T03:59:49.222Z,8.97
2019-03-21T04:02:19.018Z,8.95
2019-03-21T04:04:48.754Z,8.94
2019-03-21T04:07:18.561Z,8.95
2019-03-21T04:09:48.299Z,8.93
2019-03-21T04:12:18.082Z,8.94
2019-03-21T04:14:47.860Z,8.93
2019-03-21T04:17:17.597Z,8.95
2019-03-21T04:19:47.415Z,8.93
2019-03-21T04:22:17.333Z,8.99
2019-03-21T04:24:47.131Z,8.99
2019-03-21T04:27:16.925Z,8.98
2019-03-21T04:29:46.713Z,8.95
2019-03-21T04:32:16.498Z,8.96
2019-03-21T04:34:46.308Z,8.97
2019-03-21T04:37:16.087Z,9.01
2019-03-21T04:39:45.900Z,9.03
2019-03-21T04:42:15.663Z,9.01
2019-03-21T04:44:45.404Z,9.01
2019-03-21T04:47:15.208Z,9.03
2019-03-21T04:49:45.033Z,9.01
2019-03-21T04:52:14.855Z,9.02
2019-03-21T04:54:44.948Z,9.00
2019-03-21T04:57:14.761Z,9.03
2019-03-21T04:59:44.541Z,9.01
2019-03-21T05:02:14.337Z,9.03
2019-03-21T05:04:44.100Z,9.01
2019-03-21T05:07:13.901Z,9.03
2019-03-21T05:09:44.275Z,9.01
2019-03-21T05:12:17.064Z,8.98
2019-03-21T05:14:46.834Z,9.03
2019-03-21T05:17:16.653Z,9.06
2019-03-21T05:19:46.430Z,9.06
2019-03-21T05:22:16.203Z,9.09
2019-03-21T05:24:45.988Z,9.13
2019-03-21T05:27:15.725Z,9.13
2019-03-21T05:29:48.335Z,9.11
2019-03-21T05:32:18.096Z,9.13
2019-03-21T05:34:47.883Z,9.14
2019-03-21T05:37:17.661Z,9.19
2019-03-21T05:39:47.452Z,9.23
2019-03-21T05:42:17.321Z,9.29
2019-03-21T05:44:47.054Z,9.35
2019-03-21T05:47:16.851Z,9.37
2019-03-21T05:49:46.595Z,9.38
2019-03-21T05:52:16.377Z,9.38
2019-03-21T05:54:46.146Z,9.40
2019-03-21T05:57:15.954Z,9.43
2019-03-21T05:59:45.729Z,9.47
2019-03-21T06:02:15.508Z,9.51
2019-03-21T06:04:45.294Z,9.51
2019-03-21T06:07:20.950Z,9.53
2019-03-21T06:09:50.716Z,9.59
2019-03-21T06:12:20.501Z,9.57
2019-03-21T06:15:01.983Z,9.62
2019-03-21T06:17:32.075Z,9.61
2019-03-21T06:20:35.046Z,9.62
2019-03-21T06:23:23.085Z,9.69
2019-03-21T06:26:13.990Z,9.73
2019-03-21T06:28:43.788Z,9.79
2019-03-21T06:31:13.571Z,9.86
2019-03-21T06:33:43.341Z,9.95
2019-03-21T06:36:13.128Z,10.02
2019-03-21T06:38:42.866Z,10.09
2019-03-21T06:41:12.663Z,10.28
2019-03-21T06:43:42.401Z,10.26
2019-03-21T06:46:12.204Z,10.37
2019-03-21T06:48:41.948Z,10.35
2019-03-21T06:51:11.732Z,10.41
2019-03-21T06:53:41.512Z,10.57
2019-03-21T06:56:11.288Z,10.59
2019-03-21T06:58:41.068Z,10.72
2019-03-21T07:01:10.816Z,10.74
2019-03-21T07:03:40.792Z,10.82
2019-03-21T07:06:10.541Z,10.85
2019-03-21T07:08:40.330Z,10.88
2019-03-21T07:11:10.066Z,11.08
2019-03-21T07:13:39.855Z,11.46
2019-03-21T07:16:09.684Z,11.54
2019-03-21T07:18:39.488Z,11.57
2019-03-21T07:21:09.268Z,11.59
2019-03-21T07:23:39.075Z,11.37
2019-03-21T07:26:08.844Z,11.36
2019-03-21T07:28:38.798Z,11.03
2019-03-21T07:31:11.362Z,11.05
2019-03-21T07:33:42.391Z,10.88
2019-03-21T07:36:12.842Z,10.85
2019-03-21T07:38:42.922Z,10.95
2019-03-21T07:41:13.275Z,11.07
2019-03-21T07:43:43.506Z,11.07
2019-03-21T07:46:14.036Z,11.11
2019-03-21T07:48:45.894Z,11.13
2019-03-21T07:51:16.463Z,11.16
2019-03-21T07:53:46.449Z,11.15
2019-03-21T07:56:16.237Z,11.19
2019-03-21T07:58:46.075Z,11.31
2019-03-21T08:01:19.231Z,11.45
2019-03-21T08:03:49.895Z,11.56
2019-03-21T08:06:20.601Z,11.44
2019-03-21T08:08:51.511Z,11.58
2019-03-21T08:11:21.511Z,11.74
2019-03-21T08:13:51.329Z,11.74
2019-03-21T08:16:21.971Z,11.93
2019-03-21T08:18:52.837Z,12.01
2019-03-21T08:21:23.252Z,11.99
2019-03-21T08:23:54.006Z,12.07
2019-03-21T08:26:24.395Z,12.00
2019-03-21T08:28:54.201Z,11.96
2019-03-21T08:31:23.977Z,12.00
2019-03-21T08:33:53.785Z,11.90
2019-03-21T08:36:23.571Z,11.98
2019-03-21T08:38:53.377Z,12.06
2019-03-21T08:41:23.159Z,12.17
2019-03-21T08:43:52.934Z,11.96
2019-03-21T08:46:22.723Z,11.93
2019-03-21T08:48:52.482Z,11.94
2019-03-21T08:51:22.309Z,12.01
2019-03-21T08:53:52.093Z,12.11
2019-03-21T08:56:21.863Z,12.26
2019-03-21T08:58:51.752Z,12.26
2019-03-21T09:01:21.499Z,12.34
2019-03-21T09:03:51.303Z,12.22
2019-03-21T09:06:21.054Z,12.24
2019-03-21T09:08:51.162Z,12.10
2019-03-21T09:11:20.949Z,12.04
2019-03-21T09:13:50.855Z,12.29
2019-03-21T09:16:20.624Z,12.51
2019-03-21T09:18:50.598Z,12.72
2019-03-21T09:21:20.398Z,12.96
2019-03-21T09:23:50.235Z,13.23
2019-03-21T09:26:20.085Z,13.35
2019-03-21T09:28:49.989Z,13.51
2019-03-21T09:31:19.803Z,13.29
2019-03-21T09:33:49.584Z,13.01
2019-03-21T09:36:19.372Z,12.61
2019-03-21T09:38:49.151Z,13.01
2019-03-21T09:41:18.887Z,13.40
2019-03-21T09:43:48.704Z,13.78
2019-03-21T09:46:18.448Z,13.99
2019-03-21T09:48:48.275Z,14.10
2019-03-21T09:51:18.012Z,13.95
2019-03-21T09:53:47.797Z,13.90
2019-03-21T09:56:17.557Z,13.88
2019-03-21T09:58:47.335Z,13.74
2019-03-21T10:01:17.109Z,13.98
2019-03-21T10:03:47.618Z,14.13
2019-03-21T10:06:17.406Z,14.48
2019-03-21T10:08:47.221Z,14.48
2019-03-21T10:11:16.992Z,14.45
2019-03-21T10:13:46.766Z,14.25
2019-03-21T10:16:16.536Z,13.77
2019-03-21T10:18:46.270Z,13.50
2019-03-21T10:21:16.160Z,13.42
2019-03-21T10:23:46.005Z,13.39
2019-03-21T10:26:15.795Z,13.50
2019-03-21T10:28:45.586Z,13.90
2019-03-21T10:31:15.390Z,14.34
2019-03-21T10:33:45.182Z,14.46
2019-03-21T10:36:16.081Z,14.62
2019-03-21T10:38:46.220Z,14.59
2019-03-21T10:41:16.019Z,14.49
2019-03-21T10:43:45.887Z,14.43
2019-03-21T10:46:15.658Z,14.50
2019-03-21T10:48:45.441Z,14.38
2019-03-21T10:51:15.199Z,14.26
2019-03-21T10:53:45.020Z,14.28
2019-03-21T10:56:14.753Z,14.09
2019-03-21T10:58:44.544Z,14.03
2019-03-21T11:01:14.315Z,14.10
2019-03-21T11:03:44.069Z,14.11
2019-03-21T11:06:13.870Z,14.17
2019-03-21T11:08:43.618Z,14.25
2019-03-21T11:11:13.550Z,14.39
2019-03-21T11:13:43.361Z,14.77
2019-03-21T11:16:13.098Z,14.87
2019-03-21T11:18:42.897Z,14.83
2019-03-21T11:21:12.632Z,14.52
2019-03-21T11:23:42.414Z,14.29
2019-03-21T11:26:12.213Z,14.17
2019-03-21T11:28:42.006Z,14.27
2019-03-21T11:31:11.866Z,14.31
2019-03-21T11:33:41.666Z,14.47
2019-03-21T11:36:11.624Z,14.47
2019-03-21T11:38:41.404Z,14.44
2019-03-21T11:41:11.195Z,14.66
2019-03-21T11:43:41.043Z,14.97
2019-03-21T11:46:10.848Z,15.12
2019-03-21T11:48:40.619Z,15.09
2019-03-21T11:51:10.495Z,14.90
2019-03-21T11:53:40.355Z,14.89
2019-03-21T11:56:12.872Z,14.95
2019-03-21T11:58:41.732Z,14.95
2019-03-21T12:01:11.630Z,15.08
2019-03-21T12:03:41.399Z,15.06
2019-03-21T12:06:11.628Z,15.05
2019-03-21T12:08:41.403Z,15.05
2019-03-21T12:11:11.182Z,15.10
2019-03-21T12:13:41.170Z,15.17
2019-03-21T12:16:10.921Z,15.10
2019-03-21T12:18:42.151Z,15.11
2019-03-21T12:21:12.010Z,14.98
2019-03-21T12:23:41.800Z,14.91
2019-03-21T12:26:11.599Z,14.65
2019-03-21T12:28:41.402Z,14.89
2019-03-21T12:31:11.126Z,14.92
2019-03-21T12:33:40.898Z,14.81
2019-03-21T12:36:10.745Z,14.68
2019-03-21T12:38:40.647Z,14.52
2019-03-21T12:41:10.427Z,14.47
2019-03-21T12:43:40.331Z,14.51
2019-03-21T12:46:10.100Z,14.45
2019-03-21T12:48:39.858Z,14.37
2019-03-21T12:51:09.884Z,14.44
2019-03-21T12:53:39.702Z,14.35
2019-03-21T12:56:09.572Z,14.23
2019-03-21T12:58:39.322Z,14.07
2019-03-21T13:01:09.111Z,13.93
2019-03-21T13:03:38.892Z,13.83
2019-03-21T13:06:08.749Z,13.93
2019-03-21T13:08:38.729Z,14.01
2019-03-21T13:11:08.514Z,14.01
2019-03-21T13:13:38.331Z,14.11
2019-03-21T13:16:08.122Z,14.20
2019-03-21T13:18:37.920Z,14.22
2019-03-21T13:21:07.707Z,14.16
2019-03-21T13:23:37.490Z,14.15
2019-03-21T13:26:07.258Z,14.33
2019-03-21T13:28:37.007Z,14.32
2019-03-21T13:31:06.820Z,14.38
2019-03-21T13:33:36.580Z,14.32
2019-03-21T13:36:06.351Z,14.27
2019-03-21T13:38:36.127Z,14.18
2019-03-21T13:41:05.908Z,14.13
2019-03-21T13:43:35.713Z,13.88
2019-03-21T13:46:05.469Z,13.90
2019-03-21T13:48:35.281Z,13.91
2019-03-21T13:51:05.012Z,14.04
2019-03-21T13:53:34.830Z,14.04
2019-03-21T13:56:04.587Z,14.13
2019-03-21T13:58:34.364Z,14.14
2019-03-21T14:01:04.157Z,14.09
2019-03-21T14:03:33.972Z,13.98
2019-03-21T14:06:04.864Z,13.75
2019-03-21T14:08:34.692Z,13.78
2019-03-21T14:11:04.510Z,13.84
2019-03-21T14:13:34.322Z,13.90
2019-03-21T14:16:04.110Z,13.96
2019-03-21T14:18:33.877Z,13.91
2019-03-21T14:21:03.671Z,13.86
2019-03-21T14:23:42.672Z,13.79
2019-03-21T14:26:04.926Z,13.81
2019-03-21T14:28:34.713Z,13.94
2019-03-21T14:31:04.529Z,13.82
2019-03-21T14:33:34.420Z,13.86
2019-03-21T14:36:04.220Z,13.82
2019-03-21T14:38:34.005Z,13.78
2019-03-21T14:41:03.767Z,13.57
2019-03-21T14:43:33.557Z,13.55
2019-03-21T14:46:03.295Z,13.56
2019-03-21T14:48:33.113Z,13.46
2019-03-21T14:51:02.862Z,13.44
2019-03-21T14:53:32.662Z,13.44
2019-03-21T14:56:02.517Z,13.48
2019-03-21T14:58:32.340Z,13.46
2019-03-21T15:01:02.115Z,13.49
2019-03-21T15:03:32.014Z,13.49
2019-03-21T15:06:01.898Z,13.42
2019-03-21T15:08:31.658Z,13.49
2019-03-21T15:11:01.460Z,13.52
2019-03-21T15:13:31.259Z,13.27
2019-03-21T15:16:01.224Z,13.15
2019-03-21T15:18:31.019Z,13.18
2019-03-21T15:21:01.127Z,13.16
2019-03-21T15:23:40.101Z,13.20
2019-03-21T15:26:02.407Z,13.19
2019-03-21T15:28:32.182Z,13.18
2019-03-21T15:31:01.958Z,13.11
2019-03-21T15:33:31.750Z,13.13
2019-03-21T15:36:01.507Z,13.07
2019-03-21T15:38:31.302Z,13.11
2019-03-21T15:41:01.043Z,13.03
2019-03-21T15:43:30.824Z,13.06
2019-03-21T15:46:00.592Z,13.04
2019-03-21T15:48:30.417Z,13.11
2019-03-21T15:51:04.690Z,13.13
2019-03-21T15:53:31.681Z,13.11
2019-03-21T15:56:01.458Z,13.10
2019-03-21T15:58:31.268Z,12.99
2019-03-21T16:01:01.047Z,12.81
2019-03-21T16:03:30.838Z,12.87
2019-03-21T16:06:00.628Z,12.85
2019-03-21T16:08:30.404Z,12.93
2019-03-21T16:11:00.378Z,12.82
2019-03-21T16:13:30.132Z,12.84
2019-03-21T16:15:59.947Z,12.81
2019-03-21T16:18:29.700Z,12.75
2019-03-21T16:20:59.475Z,12.75
2019-03-21T16:23:29.260Z,12.70
2019-03-21T16:25:59.175Z,12.73
2019-03-21T16:28:28.975Z,12.71
2019-03-21T16:30:58.747Z,12.68
2019-03-21T16:33:28.539Z,12.63
2019-03-21T16:35:58.285Z,12.61
2019-03-21T16:38:28.098Z,12.60
2019-03-21T16:40:57.861Z,12.64
2019-03-21T16:43:27.648Z,12.61
2019-03-21T16:45:57.435Z,12.60
2019-03-21T16:48:27.248Z,12.63
2019-03-21T16:50:57.051Z,12.60
2019-03-21T16:53:26.866Z,12.61
2019-03-21T16:55:56.650Z,12.55
2019-03-21T16:58:26.451Z,12.47
2019-03-21T17:00:56.235Z,12.51
2019-03-21T17:03:25.981Z,12.50
2019-03-21T17:05:55.829Z,12.44
2019-03-21T17:08:25.630Z,12.48
2019-03-21T17:10:55.652Z,12.39
2019-03-21T17:13:25.404Z,12.46
2019-03-21T17:15:56.798Z,12.42
2019-03-21T17:18:26.539Z,12.42
2019-03-21T17:20:56.378Z,12.41
2019-03-21T17:23:26.103Z,12.43
2019-03-21T17:25:55.897Z,12.37
2019-03-21T17:28:25.682Z,12.39
2019-03-21T17:30:57.041Z,12.34
2019-03-21T17:33:28.390Z,12.31
2019-03-21T17:35:58.208Z,12.29
2019-03-21T17:38:28.083Z,12.29
2019-03-21T17:40:57.871Z,12.31
2019-03-21T17:43:27.757Z,12.33
2019-03-21T17:45:58.284Z,12.29
2019-03-21T17:48:28.607Z,12.25
2019-03-21T17:50:58.353Z,12.27
2019-03-21T17:53:28.164Z,12.18
2019-03-21T17:55:58.202Z,12.19
2019-03-21T17:58:28.802Z,12.11
2019-03-21T18:00:58.805Z,12.19
2019-03-21T18:03:28.615Z,12.12
2019-03-21T18:05:58.373Z,12.13
2019-03-21T18:08:28.179Z,12.09
2019-03-21T18:10:57.947Z,12.10
2019-03-21T18:13:27.788Z,12.15
2019-03-21T18:15:59.218Z,12.13
2019-03-21T18:18:30.597Z,12.06
2019-03-21T18:21:01.839Z,12.06
2019-03-21T18:23:40.095Z,12.06
2019-03-21T18:26:07.880Z,12.01
2019-03-21T18:50:58.009Z,12.02
2019-03-21T18:56:55.623Z,11.98
2019-03-21T18:59:27.395Z,11.98
2019-03-21T19:02:00.145Z,11.97
2019-03-21T19:04:32.752Z,11.98
2019-03-21T19:11:05.495Z,11.94
2019-03-21T19:13:59.468Z,11.93
2019-03-21T19:16:34.552Z,11.79
2019-03-21T19:19:06.259Z,11.79
2019-03-21T19:21:43.045Z,11.74
2019-03-21T19:24:20.317Z,11.74
2019-03-21T19:26:51.160Z,11.71
2019-03-21T19:29:21.530Z,11.73
2019-03-21T19:31:57.855Z,11.71
2019-03-21T19:34:36.971Z,11.71
2019-03-21T19:37:15.103Z,11.71
2019-03-21T19:39:49.764Z,11.72
2019-03-21T19:42:28.537Z,11.76
2019-03-21T19:45:02.348Z,11.78
2019-03-21T19:47:35.256Z,11.81
2019-03-21T19:50:10.816Z,11.78
2019-03-21T19:52:42.378Z,11.70
2019-03-21T19:55:30.180Z,11.68
2019-03-21T19:57:59.587Z,11.69
2019-03-21T20:00:46.270Z,11.69
2019-03-21T20:03:21.386Z,11.64
2019-03-21T20:06:00.543Z,11.64
2019-03-21T20:08:49.173Z,11.61
2019-03-21T20:11:35.028Z,11.61
2019-03-21T20:14:24.524Z,11.54
2019-03-21T20:17:01.768Z,11.54
2019-03-21T20:19:36.268Z,11.47
2019-03-21T20:22:13.633Z,11.50
2019-03-21T20:24:44.396Z,11.51
2019-03-21T20:27:15.107Z,11.46
2019-03-21T20:29:45.973Z,11.42
2019-03-21T20:32:20.693Z,11.40
2019-03-21T20:34:49.417Z,11.39
2019-03-21T20:37:20.055Z,11.42
2019-03-21T20:39:51.505Z,11.40
2019-03-21T20:42:21.826Z,11.35
2019-03-21T20:44:53.844Z,11.31
2019-03-21T20:47:24.759Z,11.29
2019-03-21T20:50:14.223Z,11.30
2019-03-21T20:55:56.251Z,11.39
2019-03-21T20:58:40.804Z,11.35
2019-03-21T21:01:14.501Z,11.43
2019-03-21T21:04:09.331Z,11.40
2019-03-21T21:06:51.537Z,11.41
2019-03-21T21:28:01.518Z,11.39
2019-03-21T21:30:34.110Z,11.38
2019-03-21T21:33:06.248Z,11.40
2019-03-21T21:35:38.910Z,11.37
2019-03-21T21:38:10.126Z,11.39
2019-03-21T21:40:40.679Z,11.36
2019-03-21T21:43:10.489Z,11.42
2019-03-21T21:45:40.959Z,11.45
2019-03-21T21:48:12.068Z,11.45
2019-03-21T21:50:41.843Z,11.44
2019-03-21T21:53:11.653Z,11.46
2019-03-21T21:55:43.047Z,11.42
2019-03-21T21:58:12.860Z,11.44
2019-03-21T22:00:42.640Z,11.43
2019-03-21T22:03:12.411Z,11.42
2019-03-21T22:05:42.200Z,11.40
2019-03-21T22:08:11.942Z,11.36
2019-03-21T22:10:41.742Z,11.35
2019-03-21T22:13:11.514Z,11.35
2019-03-21T22:15:41.478Z,11.37
2019-03-21T22:18:11.268Z,11.30
2019-03-21T22:20:41.073Z,11.32
2019-03-21T22:23:10.864Z,11.30
2019-03-21T22:25:40.659Z,11.32
2019-03-21T22:28:10.437Z,11.33
2019-03-21T22:30:40.247Z,11.28
2019-03-21T22:33:10.018Z,11.30
2019-03-21T22:35:39.793Z,11.25
2019-03-21T22:38:09.563Z,11.22
2019-03-21T22:40:39.310Z,11.23
2019-03-21T22:43:09.111Z,11.15
2019-03-21T22:45:38.888Z,11.15
2019-03-21T22:48:08.675Z,11.07
2019-03-21T22:50:38.447Z,11.12
2019-03-21T22:53:08.191Z,11.05
2019-03-21T22:55:37.994Z,11.05
2019-03-21T22:58:07.734Z,11.01
2019-03-21T23:00:42.111Z,11.03
2019-03-21T23:03:11.950Z,11.05
2019-03-21T23:05:41.930Z,11.02
2019-03-21T23:08:11.658Z,11.00
2019-03-21T23:10:41.533Z,11.00
2019-03-21T23:13:11.282Z,10.94
2019-03-21T23:15:41.061Z,10.95
2019-03-21T23:18:10.846Z,10.98
2019-03-21T23:20:40.645Z,10.89
2019-03-21T23:23:10.438Z,10.92
2019-03-21T23:25:40.222Z,10.93
2019-03-21T23:28:10.007Z,10.94
2019-03-21T23:30:39.744Z,10.92
2019-03-21T23:33:09.561Z,10.89
2019-03-21T23:35:39.331Z,10.89
2019-03-21T23:38:09.104Z,10.88
2019-03-21T23:40:38.874Z,10.90
2019-03-21T23:43:08.627Z,10.91
2019-03-21T23:45:38.429Z,10.91
2019-03-21T23:48:08.187Z,10.84
2019-03-21T23:50:38.022Z,10.75
2019-03-21T23:53:07.798Z,10.73
2019-03-21T23:55:37.602Z,10.66
2019-03-21T23:58:07.422Z,10.55
